메인 페이지
METAR-TAF:

METAR-TAF

공항 :

타브리즈, 이란

위도: 38-05N, 경도: 046-17E, 고도: 1367m

현재 날씨관측

예보는 27분 전, 13:30시(UTC)에 발표되었습니다.
14kt
온도 28°C
습도 8%
기압 1019 hPa
시정 10km 이상
고도 3000ft 상공 구름 조금

METAR: OITT 051330Z 27014KT 9999 FEW030 28/M09 Q1018 A3009

시각: 18:27 (13:57 UTC)

예보

예보는 2 시간 42분 전, 11:15시(UTC)에 발표되었습니다.
예보 대상 시간: 05일 12시부터 06일 18시까지 (UTC)
6kt
시정: 8000m
일시적
05일 12시부터 05일 16시까지 (UTC)
남서18kt
전환 중
05일 22시부터 05일 24시까지 (UTC)
12kt
일시적
06일 00시부터 06일 06시까지 (UTC)
16kt, 순간 최대 풍속 26kt
전환 중
06일 09시부터 06일 11시까지 (UTC)
고도 3500ft 상공 구름 조금, 적란운.
고도 4000ft 상공 구름 조금
고도 10000ft 상공 구름 보통
일시적
06일 12시부터 06일 18시까지 (UTC)
동북동18kt, 순간 최대 풍속 28kt
시정: 4000m
고도 3000ft 상공 구름 보통, 적란운.
고도 3500ft 상공 구름 보통
고도 9000ft 상공 구름 많음
뇌우, 비

TAF: OITT 051115Z 0512/0618 26006KT 8000 NSC TEMPO 0512/0516 23018KT BECMG 0522/0524 08012KT TEMPO 0600/0606 08016G26KT BECMG 0609/0611 FEW035CB FEW040 SCT100 TEMPO 0612/0618 06018G28KT 4000 TSRA SCT030CB SCT035 BKN090

4,000개 이상의 공항 관측 자료 및 예보 (METAR 및 TAF 보고).

지도상에서 검색 가능한 기상관측소가 노란 점과 빨간 점으로 표시되어 있습니다.

기상관측소 명을 보려면 표시 위로 마우스를 이동하세요.

날씨 관측과 예보를 보려면 클릭하세요.

지도 변경 : 확대하려면 엑스 표시가 있는 녹색 버튼, 축소하려면 빼기 표시가 있는 녹색 버튼, 다음 페이지의 지도를 보려면 녹색 화살표를 클릭하세요.


METAR-TAF: